Time;durP1;ratioP1;P1;durP2;ratioP2;P2;SDS_P1;SDS_P2;PMS_P1;PMS_P2;Temp;Humidity;BMP_temperature;BMP_pressure;BME280_temperature;BME280_humidity;BME280_pressure;Samples;Min_cycle;Max_cycle;Signal;HPM_P1;HPM_P2
2023/09/04 00:01:02;;;;;;;8.23;5.95;;;;;;;;;;5013074;28;20038;-82
2023/09/04 00:03:30;;;;;;;6.60;5.90;;;;;;;;;;5009932;28;20587;-82
2023/09/04 00:05:57;;;;;;;7.15;5.18;;;;;;;;;;5006607;28;20061;-82
2023/09/04 00:08:25;;;;;;;11.10;5.43;;;;;;;;;;5011388;28;20536;-82
2023/09/04 00:10:54;;;;;;;14.48;5.88;;;;;;;;;;5011118;28;20047;-82
2023/09/04 00:13:21;;;;;;;6.43;4.68;;;;;;;;;;5012218;28;20065;-82
2023/09/04 00:15:48;;;;;;;8.07;4.95;;;;;;;;;;5010000;28;20488;-82
2023/09/04 00:18:16;;;;;;;6.13;5.47;;;;;;;;;;5012133;28;20065;-82
2023/09/04 00:20:44;;;;;;;8.30;5.35;;;;;;;;;;5007057;28;20534;-82
2023/09/04 00:23:11;;;;;;;6.80;5.80;;;;;;;;;;4995638;28;20054;-82
2023/09/04 00:25:38;;;;;;;7.10;4.78;;;;;;;;;;5009098;28;20057;-82
2023/09/04 00:28:08;;;;;;;6.22;5.18;;;;;;;;;;4989869;28;20059;-82
2023/09/04 00:30:35;;;;;;;7.00;6.20;;;;;;;;;;5011428;28;20057;-82
2023/09/04 00:33:04;;;;;;;7.35;5.90;;;;;;;;;;5011453;28;20407;-82
2023/09/04 00:35:32;;;;;;;5.95;5.35;;;;;;;;;;5011849;28;20057;-82
2023/09/04 00:37:59;;;;;;;13.68;5.20;;;;;;;;;;5008289;28;20531;-82
2023/09/04 00:40:27;;;;;;;7.20;5.45;;;;;;;;;;4995103;28;20508;-82
2023/09/04 00:42:54;;;;;;;5.63;4.88;;;;;;;;;;5011746;28;20048;-82
2023/09/04 00:45:23;;;;;;;8.82;5.93;;;;;;;;;;4993421;28;20073;-82
2023/09/04 00:47:51;;;;;;;7.38;6.07;;;;;;;;;;4992890;28;20050;-82
2023/09/04 00:50:21;;;;;;;6.50;5.80;;;;;;;;;;4991239;28;20493;-82
2023/09/04 00:52:49;;;;;;;7.35;4.95;;;;;;;;;;5010007;28;20054;-82
2023/09/04 00:55:16;;;;;;;9.77;6.63;;;;;;;;;;5008659;28;20496;-82
2023/09/04 00:57:44;;;;;;;6.85;5.63;;;;;;;;;;5009592;28;20061;-82
2023/09/04 01:00:14;;;;;;;6.65;4.43;;;;;;;;;;4992777;28;20049;-82
2023/09/04 01:02:43;;;;;;;9.10;6.70;;;;;;;;;;4994286;28;20420;-82
2023/09/04 01:05:10;;;;;;;6.78;6.07;;;;;;;;;;5010959;28;20057;-82
2023/09/04 01:07:40;;;;;;;9.73;5.85;;;;;;;;;;5009102;28;20050;-82
2023/09/04 01:10:09;;;;;;;7.60;6.13;;;;;;;;;;4992215;28;20042;-82
2023/09/04 01:12:41;;;;;;;5.82;5.05;;;;;;;;;;5007212;28;20046;-82
2023/09/04 01:15:09;;;;;;;7.25;6.50;;;;;;;;;;5023432;28;20485;-82
2023/09/04 01:17:38;;;;;;;6.72;5.32;;;;;;;;;;5008457;28;20420;-82
2023/09/04 01:20:27;;;;;;;6.40;5.32;;;;;;;;;;5007436;28;20065;-82
2023/09/04 01:22:55;;;;;;;6.78;5.25;;;;;;;;;;5008856;28;20045;-82
2023/09/04 01:25:23;;;;;;;7.25;4.70;;;;;;;;;;4992359;28;20523;-82
2023/09/04 01:27:57;;;;;;;5.90;5.35;;;;;;;;;;5005809;28;20065;-82
2023/09/04 01:30:30;;;;;;;10.93;6.00;;;;;;;;;;4988023;28;20061;-82
2023/09/04 01:33:02;;;;;;;5.78;5.10;;;;;;;;;;5008584;28;20056;-83
2023/09/04 01:35:31;;;;;;;7.82;5.32;;;;;;;;;;4986237;28;20417;-83
2023/09/04 01:37:59;;;;;;;6.43;4.55;;;;;;;;;;5006096;28;20053;-82
2023/09/04 01:40:26;;;;;;;10.98;6.20;;;;;;;;;;4976104;28;20056;-82
2023/09/04 01:42:54;;;;;;;13.40;6.00;;;;;;;;;;4992860;28;20319;-82
2023/09/04 01:45:21;;;;;;;6.72;4.68;;;;;;;;;;4994187;28;20050;-82
2023/09/04 01:47:48;;;;;;;6.57;5.22;;;;;;;;;;5009144;28;20065;-82
2023/09/04 01:50:16;;;;;;;7.65;6.68;;;;;;;;;;4992864;28;20061;-82
2023/09/04 01:52:45;;;;;;;7.18;5.18;;;;;;;;;;4990034;28;20057;-82
2023/09/04 01:55:12;;;;;;;8.88;6.03;;;;;;;;;;5006587;28;20042;-82
2023/09/04 01:57:39;;;;;;;8.90;5.55;;;;;;;;;;4990290;28;20046;-82
2023/09/04 02:00:08;;;;;;;7.97;4.88;;;;;;;;;;4990992;28;20045;-82
2023/09/04 02:02:42;;;;;;;9.25;5.50;;;;;;;;;;5009064;28;20042;-82
2023/09/04 02:05:10;;;;;;;8.02;5.85;;;;;;;;;;4992510;28;20277;-82
2023/09/04 02:07:37;;;;;;;5.75;5.22;;;;;;;;;;5011279;28;20069;-82
2023/09/04 02:10:07;;;;;;;8.70;6.03;;;;;;;;;;4991666;28;20121;-82
2023/09/04 02:12:36;;;;;;;8.27;5.45;;;;;;;;;;5003419;28;20054;-82
2023/09/04 02:15:04;;;;;;;5.68;4.57;;;;;;;;;;4989705;28;20092;-82
2023/09/04 02:17:32;;;;;;;4.82;4.10;;;;;;;;;;5010038;28;20049;-83
2023/09/04 02:20:00;;;;;;;6.95;5.20;;;;;;;;;;4993726;28;20050;-82
2023/09/04 02:22:28;;;;;;;6.88;5.22;;;;;;;;;;4993251;28;20054;-82
2023/09/04 02:24:55;;;;;;;6.97;5.65;;;;;;;;;;4990834;28;20049;-82
2023/09/04 02:27:25;;;;;;;12.40;5.40;;;;;;;;;;4992638;28;20053;-82
2023/09/04 02:29:52;;;;;;;18.60;6.10;;;;;;;;;;5010106;28;20049;-82
2023/09/04 02:32:21;;;;;;;7.03;5.55;;;;;;;;;;4993290;28;20053;-82
2023/09/04 02:34:48;;;;;;;6.45;5.60;;;;;;;;;;5008832;28;20057;-82
2023/09/04 02:37:16;;;;;;;8.25;4.97;;;;;;;;;;4989128;28;20439;-82
2023/09/04 02:39:43;;;;;;;8.73;4.70;;;;;;;;;;4989773;28;20462;-82
2023/09/04 02:42:11;;;;;;;7.82;5.30;;;;;;;;;;4989427;28;20038;-82
2023/09/04 02:44:40;;;;;;;7.32;5.50;;;;;;;;;;4992998;28;20054;-82
2023/09/04 02:47:07;;;;;;;9.50;5.55;;;;;;;;;;4989630;28;20049;-82
2023/09/04 02:49:34;;;;;;;6.85;6.15;;;;;;;;;;5009297;28;20054;-82
2023/09/04 02:52:02;;;;;;;7.05;5.28;;;;;;;;;;4991994;28;20046;-82
2023/09/04 02:54:29;;;;;;;7.78;5.38;;;;;;;;;;4991691;28;20050;-82
2023/09/04 02:56:56;;;;;;;5.82;5.00;;;;;;;;;;5006973;28;20057;-82
2023/09/04 02:59:25;;;;;;;8.23;5.32;;;;;;;;;;5008395;28;21427;-82
2023/09/04 03:01:54;;;;;;;8.02;5.30;;;;;;;;;;4990209;28;20050;-82
2023/09/04 03:04:21;;;;;;;7.10;5.28;;;;;;;;;;4989709;28;20050;-82
2023/09/04 03:06:49;;;;;;;8.77;6.13;;;;;;;;;;4987074;28;20420;-82
2023/09/04 03:09:16;;;;;;;8.35;5.60;;;;;;;;;;5009401;28;20057;-82
2023/09/04 03:11:43;;;;;;;6.45;5.35;;;;;;;;;;4990301;28;20050;-82
2023/09/04 03:14:11;;;;;;;9.90;5.75;;;;;;;;;;5009321;28;20042;-82
2023/09/04 03:16:38;;;;;;;6.78;6.10;;;;;;;;;;5004825;22;20050;-81
2023/09/04 03:19:07;;;;;;;9.52;5.15;;;;;;;;;;4999189;28;20066;-82
2023/09/04 03:21:37;;;;;;;7.05;5.68;;;;;;;;;;4984811;28;20054;-83
2023/09/04 03:24:04;;;;;;;9.30;5.75;;;;;;;;;;4987180;28;20054;-83
2023/09/04 03:26:32;;;;;;;6.13;4.65;;;;;;;;;;4967273;28;20077;-83
2023/09/04 03:28:59;;;;;;;7.25;5.47;;;;;;;;;;4967003;28;20059;-83
2023/09/04 03:31:27;;;;;;;6.55;5.15;;;;;;;;;;4967297;28;20055;-80
2023/09/04 03:33:56;;;;;;;4.88;4.47;;;;;;;;;;5003894;28;20053;-81
2023/09/04 03:36:25;;;;;;;11.27;5.63;;;;;;;;;;4994045;28;20059;-81
2023/09/04 03:38:55;;;;;;;5.72;4.57;;;;;;;;;;4997157;28;20046;-81
2023/09/04 03:41:26;;;;;;;10.57;5.93;;;;;;;;;;4996159;28;20057;-81
2023/09/04 03:43:56;;;;;;;7.18;5.13;;;;;;;;;;4965058;28;20046;-82
2023/09/04 03:46:27;;;;;;;9.40;4.30;;;;;;;;;;4970980;28;20059;-82
2023/09/04 03:48:57;;;;;;;5.68;3.78;;;;;;;;;;4986864;28;20058;-82
2023/09/04 03:51:31;;;;;;;6.68;5.07;;;;;;;;;;4971278;28;20061;-82
2023/09/04 03:54:01;;;;;;;5.53;4.97;;;;;;;;;;4990658;28;20054;-82
2023/09/04 03:56:29;;;;;;;6.13;5.07;;;;;;;;;;4989975;28;20061;-82
2023/09/04 03:58:59;;;;;;;5.22;4.50;;;;;;;;;;4974112;28;20050;-82
2023/09/04 04:01:28;;;;;;;5.93;4.97;;;;;;;;;;4982119;28;20058;-82
2023/09/04 04:03:55;;;;;;;13.02;5.85;;;;;;;;;;4984226;28;20043;-82
2023/09/04 04:06:22;;;;;;;6.60;5.40;;;;;;;;;;4998705;28;20046;-82
2023/09/04 04:08:56;;;;;;;6.72;5.35;;;;;;;;;;4997902;28;20062;-82
2023/09/04 04:11:27;;;;;;;5.57;4.38;;;;;;;;;;4987389;28;20057;-82
2023/09/04 04:13:56;;;;;;;6.65;5.00;;;;;;;;;;5000137;28;20050;-82
2023/09/04 04:16:24;;;;;;;5.82;3.97;;;;;;;;;;4976977;28;20080;-82
2023/09/04 04:18:53;;;;;;;6.80;4.95;;;;;;;;;;4984416;28;20066;-83
2023/09/04 04:21:23;;;;;;;8.23;5.32;;;;;;;;;;4995506;28;20493;-83
2023/09/04 04:23:57;;;;;;;6.68;4.78;;;;;;;;;;4976079;28;20050;-83
2023/09/04 04:26:24;;;;;;;6.20;4.85;;;;;;;;;;4967977;28;20062;-82
2023/09/04 04:28:52;;;;;;;5.97;4.82;;;;;;;;;;4994693;28;20053;-82
2023/09/04 04:31:22;;;;;;;5.50;4.60;;;;;;;;;;4981752;28;20238;-83
2023/09/04 04:33:50;;;;;;;6.00;4.70;;;;;;;;;;4967753;28;20046;-82
2023/09/04 04:36:18;;;;;;;7.60;6.68;;;;;;;;;;4971073;28;20058;-81
2023/09/04 04:38:46;;;;;;;7.47;6.15;;;;;;;;;;4992602;28;20436;-81
2023/09/04 04:41:15;;;;;;;7.03;6.25;;;;;;;;;;4991348;28;20050;-81
2023/09/04 04:43:47;;;;;;;6.30;5.65;;;;;;;;;;4980867;28;20057;-81
2023/09/04 04:46:17;;;;;;;9.30;5.20;;;;;;;;;;4975721;28;20043;-82
2023/09/04 04:48:46;;;;;;;6.78;5.25;;;;;;;;;;5012618;28;20057;-82
2023/09/04 04:51:18;;;;;;;7.88;5.85;;;;;;;;;;5000414;28;20092;-82
2023/09/04 04:53:46;;;;;;;6.68;5.32;;;;;;;;;;4993430;28;20050;-82
2023/09/04 04:56:19;;;;;;;7.43;6.25;;;;;;;;;;4971661;28;20057;-82
2023/09/04 04:58:49;;;;;;;7.28;6.50;;;;;;;;;;4988125;28;20512;-82
2023/09/04 05:01:16;;;;;;;10.55;7.50;;;;;;;;;;4979891;28;20069;-82
2023/09/04 05:03:42;;;;;;;8.15;6.25;;;;;;;;;;4982796;28;20039;-82
2023/09/04 05:06:14;;;;;;;6.93;5.65;;;;;;;;;;4978250;28;20058;-82
2023/09/04 05:08:41;;;;;;;7.85;5.75;;;;;;;;;;4975801;28;20047;-82
2023/09/04 05:11:09;;;;;;;7.03;5.00;;;;;;;;;;4994975;28;20042;-83
2023/09/04 05:13:40;;;;;;;7.13;5.32;;;;;;;;;;4989095;28;20531;-83
2023/09/04 05:16:12;;;;;;;5.93;5.00;;;;;;;;;;4992894;28;20062;-83
2023/09/04 05:18:42;;;;;;;5.35;4.85;;;;;;;;;;4984043;28;20050;-83
2023/09/04 05:21:12;;;;;;;5.85;4.95;;;;;;;;;;4992524;28;20073;-82
2023/09/04 05:23:39;;;;;;;6.55;4.80;;;;;;;;;;4995184;28;20408;-82
2023/09/04 05:26:06;;;;;;;5.97;5.38;;;;;;;;;;4978553;28;20050;-82
2023/09/04 05:28:36;;;;;;;8.65;5.82;;;;;;;;;;4990509;28;20081;-82
2023/09/04 05:31:05;;;;;;;4.65;4.15;;;;;;;;;;4975051;28;20493;-81
2023/09/04 05:33:34;;;;;;;10.35;4.70;;;;;;;;;;4988502;28;20050;-81
2023/09/04 05:36:05;;;;;;;5.72;5.13;;;;;;;;;;4991117;28;20444;-82
2023/09/04 05:38:35;;;;;;;7.97;5.50;;;;;;;;;;4964082;28;20425;-82
2023/09/04 05:41:03;;;;;;;5.75;4.97;;;;;;;;;;4971372;28;20070;-82
2023/09/04 05:43:30;;;;;;;5.65;5.05;;;;;;;;;;4971360;28;20046;-82
2023/09/04 05:46:00;;;;;;;5.72;4.43;;;;;;;;;;4994824;28;20041;-82
2023/09/04 05:48:31;;;;;;;5.65;4.40;;;;;;;;;;4972132;28;20058;-81
2023/09/04 05:51:02;;;;;;;8.90;4.05;;;;;;;;;;4982664;28;20054;-82
2023/09/04 05:53:34;;;;;;;6.57;4.35;;;;;;;;;;4995810;28;20061;-81
2023/09/04 05:56:06;;;;;;;4.53;3.25;;;;;;;;;;4993458;28;20046;-81
2023/09/04 05:58:44;;;;;;;5.10;4.30;;;;;;;;;;4985325;28;20421;-81
2023/09/04 06:01:14;;;;;;;4.07;3.70;;;;;;;;;;4989441;28;20073;-81
2023/09/04 06:03:48;;;;;;;4.07;3.45;;;;;;;;;;4985942;28;20046;-81
2023/09/04 06:06:15;;;;;;;6.00;3.55;;;;;;;;;;4985677;28;20050;-81
2023/09/04 06:08:45;;;;;;;4.00;3.60;;;;;;;;;;4986361;28;20058;-82
2023/09/04 06:11:13;;;;;;;6.10;3.58;;;;;;;;;;4995078;28;20070;-81
2023/09/04 06:13:44;;;;;;;6.83;3.23;;;;;;;;;;4992723;28;20515;-81
2023/09/04 06:16:18;;;;;;;4.65;3.28;;;;;;;;;;4979988;28;20333;-83
2023/09/04 06:18:49;;;;;;;5.20;3.90;;;;;;;;;;4989986;28;20500;-83
2023/09/04 06:21:19;;;;;;;3.60;3.08;;;;;;;;;;4978077;28;20531;-83
2023/09/04 06:23:46;;;;;;;3.95;3.00;;;;;;;;;;4981622;28;20050;-84
2023/09/04 06:26:16;;;;;;;3.70;2.97;;;;;;;;;;4970778;28;20053;-83
2023/09/04 06:28:45;;;;;;;4.03;3.10;;;;;;;;;;4961871;28;20070;-83
2023/09/04 06:31:12;;;;;;;3.85;2.72;;;;;;;;;;4981427;28;20053;-83
2023/09/04 06:33:40;;;;;;;4.88;2.92;;;;;;;;;;4969514;28;20069;-83
2023/09/04 06:36:08;;;;;;;3.92;2.78;;;;;;;;;;4986298;28;20051;-83
2023/09/04 06:38:35;;;;;;;4.18;3.15;;;;;;;;;;4989068;28;20058;-83
2023/09/04 06:41:03;;;;;;;2.50;2.30;;;;;;;;;;4966862;28;20066;-84
2023/09/04 06:43:32;;;;;;;3.40;2.78;;;;;;;;;;4973668;28;20119;-84
2023/09/04 06:46:02;;;;;;;3.45;3.15;;;;;;;;;;4978956;28;20054;-84
2023/09/04 06:48:30;;;;;;;2.80;2.50;;;;;;;;;;4979739;28;20043;-84
2023/09/04 06:51:00;;;;;;;3.33;2.55;;;;;;;;;;4954357;28;20050;-84
2023/09/04 06:53:29;;;;;;;2.60;2.17;;;;;;;;;;4954395;28;20050;-84
2023/09/04 06:55:56;;;;;;;3.58;3.22;;;;;;;;;;4963719;28;20057;-84
2023/09/04 06:58:26;;;;;;;3.65;2.53;;;;;;;;;;4972686;28;20412;-84
2023/09/04 07:00:53;;;;;;;6.05;2.88;;;;;;;;;;4982384;28;20050;-83
2023/09/04 07:03:23;;;;;;;3.83;2.58;;;;;;;;;;4987234;28;20041;-84
2023/09/04 07:05:52;;;;;;;3.72;3.03;;;;;;;;;;4980087;28;20054;-84
2023/09/04 07:08:20;;;;;;;3.15;2.85;;;;;;;;;;4968890;28;20050;-84
2023/09/04 07:10:49;;;;;;;4.18;2.33;;;;;;;;;;4983820;28;20038;-84
2023/09/04 07:13:20;;;;;;;4.73;3.17;;;;;;;;;;4986103;28;20055;-84
2023/09/04 07:15:47;;;;;;;2.90;2.60;;;;;;;;;;4989076;28;20077;-84
2023/09/04 07:18:14;;;;;;;3.13;2.72;;;;;;;;;;4992332;28;20042;-85
2023/09/04 07:20:44;;;;;;;4.70;3.22;;;;;;;;;;4976884;28;20057;-82
2023/09/04 07:23:14;;;;;;;4.53;2.70;;;;;;;;;;4971255;28;20053;-84
2023/09/04 07:25:41;;;;;;;3.17;2.88;;;;;;;;;;4992749;28;20038;-83
2023/09/04 07:28:12;;;;;;;2.67;2.38;;;;;;;;;;4991433;28;20054;-82
2023/09/04 07:30:44;;;;;;;4.00;2.63;;;;;;;;;;4988387;28;20046;-84
2023/09/04 07:33:14;;;;;;;7.00;3.00;;;;;;;;;;4986274;28;20057;-84
2023/09/04 07:35:41;;;;;;;2.75;2.35;;;;;;;;;;4986304;28;20046;-82
2023/09/04 07:38:11;;;;;;;3.55;2.70;;;;;;;;;;4977893;28;20046;-83
2023/09/04 07:40:41;;;;;;;3.08;2.78;;;;;;;;;;4976606;28;20050;-83
2023/09/04 07:43:12;;;;;;;3.53;3.13;;;;;;;;;;4984314;28;20050;-83
2023/09/04 07:45:42;;;;;;;3.28;2.83;;;;;;;;;;4976199;28;20049;-82
2023/09/04 07:48:11;;;;;;;4.03;3.17;;;;;;;;;;4963629;28;20055;-83
2023/09/04 07:50:41;;;;;;;2.92;2.47;;;;;;;;;;4991932;28;20049;-83
2023/09/04 07:53:19;;;;;;;9.13;3.42;;;;;;;;;;4991996;28;20057;-83
2023/09/04 07:55:49;;;;;;;2.67;2.15;;;;;;;;;;4985466;28;20046;-83
2023/09/04 07:58:18;;;;;;;3.05;2.70;;;;;;;;;;4989687;28;20057;-83
2023/09/04 08:00:45;;;;;;;4.32;2.90;;;;;;;;;;4982340;28;20058;-83
2023/09/04 08:03:13;;;;;;;3.58;3.28;;;;;;;;;;4984470;28;20037;-83
2023/09/04 08:05:40;;;;;;;2.83;2.55;;;;;;;;;;4990114;28;20384;-83
2023/09/04 08:08:10;;;;;;;3.88;2.53;;;;;;;;;;4975198;28;20054;-83
2023/09/04 08:10:43;;;;;;;3.55;2.80;;;;;;;;;;4975375;28;20081;-82
2023/09/04 08:13:11;;;;;;;3.58;2.55;;;;;;;;;;4993586;28;20048;-82
2023/09/04 08:15:43;;;;;;;3.72;3.42;;;;;;;;;;4974536;28;20045;-82
2023/09/04 08:18:10;;;;;;;3.05;2.75;;;;;;;;;;4987924;28;20504;-83
2023/09/04 08:20:38;;;;;;;5.00;2.75;;;;;;;;;;4991487;28;20432;-83
2023/09/04 08:23:09;;;;;;;3.50;3.20;;;;;;;;;;4993662;28;20042;-83
2023/09/04 08:25:37;;;;;;;2.53;2.33;;;;;;;;;;4990822;28;20046;-82
2023/09/04 08:28:06;;;;;;;2.92;2.63;;;;;;;;;;4986893;28;20054;-83
2023/09/04 08:30:35;;;;;;;3.38;3.05;;;;;;;;;;5000409;28;20043;-82
2023/09/04 08:33:04;;;;;;;3.20;2.45;;;;;;;;;;4981133;28;20061;-83
2023/09/04 08:35:33;;;;;;;2.97;2.70;;;;;;;;;;4991548;28;20530;-83
2023/09/04 08:38:06;;;;;;;4.05;2.78;;;;;;;;;;4988597;28;20054;-83
2023/09/04 08:40:33;;;;;;;4.00;3.00;;;;;;;;;;4975693;28;20050;-84
2023/09/04 08:43:01;;;;;;;3.17;2.97;;;;;;;;;;4993279;28;20042;-83
2023/09/04 08:45:29;;;;;;;2.90;2.38;;;;;;;;;;4995079;28;20444;-83
2023/09/04 08:48:00;;;;;;;3.38;2.95;;;;;;;;;;5000736;28;20046;-83
2023/09/04 08:50:29;;;;;;;2.95;2.75;;;;;;;;;;4991525;28;20405;-83
2023/09/04 08:52:56;;;;;;;3.33;2.85;;;;;;;;;;5002618;28;20057;-82
2023/09/04 08:55:26;;;;;;;8.93;2.88;;;;;;;;;;4993114;28;20054;-83
2023/09/04 08:57:55;;;;;;;5.47;3.03;;;;;;;;;;4983722;28;20038;-82
2023/09/04 09:00:22;;;;;;;4.13;2.50;;;;;;;;;;4988919;28;20111;-82
2023/09/04 09:02:50;;;;;;;4.35;2.58;;;;;;;;;;4988395;28;20633;-82
2023/09/04 09:05:21;;;;;;;3.55;2.97;;;;;;;;;;4980233;28;20404;-82
2023/09/04 09:07:49;;;;;;;3.70;2.75;;;;;;;;;;4986137;28;20118;-82
2023/09/04 09:10:21;;;;;;;3.50;2.83;;;;;;;;;;4992451;28;20532;-82
2023/09/04 09:12:54;;;;;;;3.60;2.95;;;;;;;;;;4986081;28;20049;-82
2023/09/04 09:15:21;;;;;;;3.13;2.80;;;;;;;;;;4992699;28;20050;-83
2023/09/04 09:17:50;;;;;;;2.28;2.08;;;;;;;;;;4996560;28;20065;-81
2023/09/04 09:20:30;;;;;;;2.95;2.67;;;;;;;;;;4989470;28;20046;-81
2023/09/04 09:22:59;;;;;;;3.28;2.60;;;;;;;;;;4991367;28;20046;-81
2023/09/04 09:25:28;;;;;;;5.07;2.83;;;;;;;;;;4978081;28;20042;-81
2023/09/04 09:28:00;;;;;;;4.82;2.67;;;;;;;;;;5009595;28;20046;-81
2023/09/04 09:30:33;;;;;;;2.83;2.47;;;;;;;;;;4977088;28;20050;-82
2023/09/04 09:33:04;;;;;;;2.47;2.28;;;;;;;;;;4975975;28;20070;-82
2023/09/04 09:35:34;;;;;;;2.53;2.22;;;;;;;;;;4992753;28;20050;-81
2023/09/04 09:38:03;;;;;;;5.00;2.63;;;;;;;;;;4986718;28;20053;-83
2023/09/04 09:40:30;;;;;;;3.28;2.35;;;;;;;;;;4981674;28;20051;-83
2023/09/04 09:42:59;;;;;;;3.33;2.35;;;;;;;;;;4971626;28;20053;-84
2023/09/04 09:45:31;;;;;;;3.13;2.10;;;;;;;;;;4984244;28;20049;-83
2023/09/04 09:48:07;;;;;;;2.97;2.67;;;;;;;;;;4988716;28;20050;-83
2023/09/04 09:50:37;;;;;;;2.38;2.17;;;;;;;;;;4991113;28;20056;-83
2023/09/04 09:53:06;;;;;;;2.45;2.25;;;;;;;;;;4987326;28;20046;-83
2023/09/04 09:55:35;;;;;;;2.95;2.67;;;;;;;;;;4984587;28;20382;-83
2023/09/04 09:58:08;;;;;;;4.43;2.45;;;;;;;;;;4975756;28;20050;-83
2023/09/04 10:00:38;;;;;;;2.55;2.35;;;;;;;;;;4990401;28;20057;-83
2023/09/04 10:03:06;;;;;;;2.38;2.17;;;;;;;;;;4969350;28;20057;-83
2023/09/04 10:05:39;;;;;;;4.47;1.98;;;;;;;;;;4984922;28;20051;-83
2023/09/04 10:08:09;;;;;;;2.45;2.25;;;;;;;;;;4974277;28;20051;-83
2023/09/04 10:10:41;;;;;;;3.13;2.13;;;;;;;;;;4985974;28;20043;-83
2023/09/04 10:13:16;;;;;;;2.35;2.15;;;;;;;;;;4970042;28;20594;-82
2023/09/04 10:15:47;;;;;;;2.95;1.80;;;;;;;;;;4987797;28;20050;-83
2023/09/04 10:18:16;;;;;;;2.30;2.10;;;;;;;;;;4990684;28;20424;-83
2023/09/04 10:20:58;;;;;;;2.30;2.10;;;;;;;;;;4985907;28;20057;-83
2023/09/04 10:23:54;;;;;;;3.38;1.90;;;;;;;;;;4969660;28;20061;-82
2023/09/04 10:26:43;;;;;;;2.60;2.00;;;;;;;;;;4986449;28;20065;-82
2023/09/04 10:29:27;;;;;;;3.08;1.73;;;;;;;;;;4973563;28;20065;-82
2023/09/04 10:31:57;;;;;;;3.03;1.77;;;;;;;;;;4974245;28;20054;-83
2023/09/04 10:34:27;;;;;;;3.42;2.05;;;;;;;;;;4985979;28;20050;-82
2023/09/04 10:36:56;;;;;;;2.35;2.05;;;;;;;;;;4961860;28;20038;-82
2023/09/04 10:39:25;;;;;;;2.50;1.73;;;;;;;;;;4974591;28;20515;-82
2023/09/04 10:41:53;;;;;;;2.88;2.63;;;;;;;;;;4986945;28;20051;-83
2023/09/04 10:44:46;;;;;;;3.55;2.20;;;;;;;;;;4966299;28;20065;-82
2023/09/04 10:47:16;;;;;;;1.80;1.70;;;;;;;;;;4972574;28;20412;-83
2023/09/04 10:49:44;;;;;;;3.42;2.83;;;;;;;;;;4978040;28;20054;-83
2023/09/04 10:52:11;;;;;;;1.70;1.60;;;;;;;;;;4995564;28;20076;-83
2023/09/04 10:54:43;;;;;;;1.88;1.70;;;;;;;;;;4992087;28;20054;-83
2023/09/04 10:57:15;;;;;;;3.15;2.22;;;;;;;;;;4990132;28;20046;-83
2023/09/04 11:00:06;;;;;;;1.98;1.80;;;;;;;;;;4977811;28;20061;-83
2023/09/04 11:02:35;;;;;;;2.63;1.98;;;;;;;;;;4981978;28;20066;-84
2023/09/04 11:05:03;;;;;;;2.40;2.20;;;;;;;;;;4989644;28;20071;-84
2023/09/04 11:07:32;;;;;;;3.20;2.50;;;;;;;;;;4992863;28;20042;-83
2023/09/04 11:10:40;;;;;;;2.03;1.90;;;;;;;;;;4989552;28;20496;-84
2023/09/04 11:13:10;;;;;;;3.85;2.53;;;;;;;;;;4997042;28;20050;-84
2023/09/04 11:15:39;;;;;;;2.42;1.85;;;;;;;;;;4998608;28;20046;-82
2023/09/04 11:18:15;;;;;;;3.00;2.70;;;;;;;;;;4994884;28;20054;-83
2023/09/04 11:20:48;;;;;;;2.47;1.95;;;;;;;;;;4984330;28;20054;-83
2023/09/04 11:23:17;;;;;;;3.53;2.15;;;;;;;;;;5004250;28;20051;-83
2023/09/04 11:25:48;;;;;;;2.53;1.90;;;;;;;;;;4992113;28;20053;-83
2023/09/04 11:28:17;;;;;;;5.40;2.55;;;;;;;;;;4994453;28;20053;-83
2023/09/04 11:30:44;;;;;;;2.63;2.13;;;;;;;;;;4991205;28;20420;-83
2023/09/04 11:33:14;;;;;;;3.97;2.03;;;;;;;;;;4994084;28;20533;-83
2023/09/04 11:35:44;;;;;;;2.10;1.88;;;;;;;;;;4994023;28;20053;-83
2023/09/04 11:38:24;;;;;;;1.88;1.77;;;;;;;;;;4993962;28;20054;-83
2023/09/04 11:40:56;;;;;;;5.25;2.53;;;;;;;;;;4971750;28;20436;-83
2023/09/04 11:43:24;;;;;;;1.98;1.60;;;;;;;;;;4994291;28;20070;-83
2023/09/04 11:45:55;;;;;;;2.03;1.55;;;;;;;;;;4996605;28;20038;-83
2023/09/04 11:48:22;;;;;;;2.25;1.95;;;;;;;;;;4990206;28;20057;-83
2023/09/04 11:50:54;;;;;;;2.60;2.28;;;;;;;;;;4969177;28;20066;-83
2023/09/04 11:53:22;;;;;;;1.90;1.65;;;;;;;;;;4977166;28;20062;-83
2023/09/04 11:55:51;;;;;;;2.97;2.33;;;;;;;;;;4972615;28;20616;-83
2023/09/04 11:58:23;;;;;;;2.27;1.63;;;;;;;;;;4992570;28;20054;-84
2023/09/04 12:00:52;;;;;;;2.67;2.03;;;;;;;;;;4988944;28;20058;-83
2023/09/04 12:03:19;;;;;;;3.22;1.75;;;;;;;;;;4976747;28;20049;-83
2023/09/04 12:05:51;;;;;;;2.78;1.70;;;;;;;;;;4989622;28;20504;-83
2023/09/04 12:08:18;;;;;;;2.85;1.80;;;;;;;;;;4977613;28;20444;-82
2023/09/04 12:10:50;;;;;;;2.47;2.28;;;;;;;;;;4991190;28;20057;-82
2023/09/04 12:13:17;;;;;;;2.72;1.67;;;;;;;;;;4976314;28;20416;-82
2023/09/04 12:15:47;;;;;;;2.50;2.05;;;;;;;;;;4994290;28;20057;-83
2023/09/04 12:18:15;;;;;;;2.65;2.03;;;;;;;;;;4972581;28;20055;-82
2023/09/04 12:20:45;;;;;;;1.92;1.70;;;;;;;;;;4976460;28;20050;-83
2023/09/04 12:23:12;;;;;;;2.38;2.00;;;;;;;;;;4992777;28;20073;-82
2023/09/04 12:25:41;;;;;;;2.30;2.08;;;;;;;;;;4976328;28;20050;-82
2023/09/04 12:28:09;;;;;;;2.38;2.10;;;;;;;;;;4985268;28;20050;-83
2023/09/04 12:30:44;;;;;;;3.30;1.90;;;;;;;;;;5005447;28;20405;-83
2023/09/04 12:33:16;;;;;;;2.80;2.23;;;;;;;;;;4992610;28;20069;-83
2023/09/04 12:35:56;;;;;;;3.28;2.45;;;;;;;;;;4976947;28;20057;-83
2023/09/04 12:38:26;;;;;;;2.38;1.73;;;;;;;;;;4993606;28;20062;-83
2023/09/04 12:40:53;;;;;;;2.38;2.17;;;;;;;;;;4986587;28;20435;-83
2023/09/04 12:43:20;;;;;;;2.97;2.30;;;;;;;;;;4988879;28;20053;-83
2023/09/04 12:45:52;;;;;;;5.72;1.67;;;;;;;;;;4969123;28;20065;-83
2023/09/04 12:48:23;;;;;;;4.45;1.90;;;;;;;;;;4992702;28;20385;-83
2023/09/04 12:50:51;;;;;;;2.00;1.70;;;;;;;;;;4974287;28;20054;-83
2023/09/04 12:53:20;;;;;;;2.95;1.95;;;;;;;;;;4974598;28;20061;-83
2023/09/04 12:55:55;;;;;;;2.05;1.60;;;;;;;;;;4991989;28;20061;-83
2023/09/04 12:58:22;;;;;;;2.67;2.10;;;;;;;;;;4992400;28;20038;-83
2023/09/04 13:00:50;;;;;;;2.58;1.90;;;;;;;;;;4987868;28;20417;-83
2023/09/04 13:03:17;;;;;;;2.67;1.92;;;;;;;;;;4990519;28;20050;-83
2023/09/04 13:05:52;;;;;;;2.25;2.05;;;;;;;;;;4993463;28;20050;-83
2023/09/04 13:08:19;;;;;;;3.17;1.80;;;;;;;;;;4992988;28;20053;-83
2023/09/04 13:10:46;;;;;;;2.35;1.65;;;;;;;;;;4992358;28;20049;-82
2023/09/04 13:13:16;;;;;;;2.97;2.20;;;;;;;;;;4985196;28;20039;-83
2023/09/04 13:15:43;;;;;;;2.50;1.48;;;;;;;;;;4982910;28;20046;-83
2023/09/04 13:18:12;;;;;;;3.38;1.63;;;;;;;;;;4993528;28;20382;-83
2023/09/04 13:20:40;;;;;;;2.72;2.15;;;;;;;;;;4991556;28;20050;-83
2023/09/04 13:23:11;;;;;;;2.85;1.85;;;;;;;;;;4989483;28;20042;-83
2023/09/04 13:25:46;;;;;;;2.35;1.52;;;;;;;;;;4991399;28;20054;-83
2023/09/04 13:28:14;;;;;;;3.80;2.08;;;;;;;;;;4993248;28;20042;-83
2023/09/04 13:30:41;;;;;;;2.78;2.03;;;;;;;;;;4973641;28;20062;-83
2023/09/04 13:33:11;;;;;;;2.58;1.83;;;;;;;;;;4990405;28;20058;-83
2023/09/04 13:35:40;;;;;;;2.00;1.65;;;;;;;;;;4990808;28;20055;-83
2023/09/04 13:38:11;;;;;;;3.20;1.70;;;;;;;;;;4999417;28;20050;-83
2023/09/04 13:40:41;;;;;;;2.42;2.00;;;;;;;;;;4985547;28;20047;-83
2023/09/04 13:43:08;;;;;;;1.83;1.52;;;;;;;;;;4974407;28;20046;-83
2023/09/04 13:45:36;;;;;;;2.45;1.92;;;;;;;;;;4991801;28;20042;-83
2023/09/04 13:48:03;;;;;;;4.82;1.88;;;;;;;;;;4991457;28;20063;-83
2023/09/04 13:50:33;;;;;;;1.90;1.50;;;;;;;;;;4990492;28;20054;-83
2023/09/04 13:53:00;;;;;;;2.22;1.77;;;;;;;;;;4988457;28;20057;-83
2023/09/04 13:55:29;;;;;;;2.88;1.80;;;;;;;;;;4965691;28;20061;-83
2023/09/04 13:57:58;;;;;;;2.40;1.63;;;;;;;;;;4988952;28;20509;-83
2023/09/04 14:00:28;;;;;;;4.22;1.92;;;;;;;;;;4991094;28;20065;-83
2023/09/04 14:02:58;;;;;;;1.92;1.35;;;;;;;;;;4983548;28;20101;-83
2023/09/04 14:05:25;;;;;;;3.05;2.25;;;;;;;;;;4991146;28;20535;-82
2023/09/04 14:07:52;;;;;;;1.83;1.58;;;;;;;;;;4989705;28;20042;-83
2023/09/04 14:10:22;;;;;;;3.78;1.33;;;;;;;;;;4975380;28;20493;-83
2023/09/04 14:12:50;;;;;;;2.92;1.92;;;;;;;;;;4986486;28;20531;-83
2023/09/04 14:15:18;;;;;;;2.95;1.60;;;;;;;;;;4990807;28;20053;-83
2023/09/04 14:17:50;;;;;;;4.32;2.03;;;;;;;;;;4979202;28;20050;-83
2023/09/04 14:20:19;;;;;;;3.83;1.58;;;;;;;;;;4991602;28;20053;-83
2023/09/04 14:22:47;;;;;;;2.78;1.60;;;;;;;;;;4989550;28;20062;-83
2023/09/04 14:25:16;;;;;;;2.20;1.80;;;;;;;;;;4973221;28;20050;-82
2023/09/04 14:27:46;;;;;;;1.58;1.48;;;;;;;;;;4989162;28;20374;-82
2023/09/04 14:30:18;;;;;;;3.78;1.67;;;;;;;;;;4984041;28;20282;-83
2023/09/04 14:32:48;;;;;;;2.08;1.73;;;;;;;;;;4968443;28;20050;-83
2023/09/04 14:35:15;;;;;;;4.85;1.70;;;;;;;;;;4986201;28;20065;-83
2023/09/04 14:37:42;;;;;;;3.25;2.33;;;;;;;;;;4969350;28;20512;-82
2023/09/04 14:40:12;;;;;;;4.05;2.08;;;;;;;;;;4967995;28;20050;-82
2023/09/04 14:42:42;;;;;;;2.67;1.65;;;;;;;;;;4983418;28;20061;-82
2023/09/04 14:45:10;;;;;;;1.95;1.50;;;;;;;;;;4987004;28;20497;-82
2023/09/04 14:47:41;;;;;;;3.55;1.65;;;;;;;;;;4979176;28;20050;-82
2023/09/04 14:50:11;;;;;;;2.38;1.70;;;;;;;;;;4965818;28;20051;-82
2023/09/04 14:52:40;;;;;;;5.30;1.73;;;;;;;;;;4981836;28;20138;-83
2023/09/04 14:55:08;;;;;;;2.08;1.88;;;;;;;;;;4978734;28;20054;-83
2023/09/04 14:57:38;;;;;;;1.85;1.48;;;;;;;;;;4980965;28;20049;-83